Time;durP1;ratioP1;P1;durP2;ratioP2;P2;SDS_P1;SDS_P2;PMS_P1;PMS_P2;Temp;Humidity;BMP_temperature;BMP_pressure;BME280_temperature;BME280_humidity;BME280_pressure;Samples;Min_cycle;Max_cycle;Signal;HPM_P1;HPM_P2
2023/07/10 00:02:26;;;;;;;8.88;3.90;;;;;;;20.26;100.00;101061.78;6027896;28;20532;-69
2023/07/10 00:05:22;;;;;;;9.10;4.00;;;;;;;20.15;100.00;101073.91;6033662;28;20033;-66
2023/07/10 00:08:17;;;;;;;7.25;4.15;;;;;;;20.31;100.00;101058.47;6030973;28;20026;-66
2023/07/10 00:11:25;;;;;;;8.03;3.73;;;;;;;20.50;100.00;101065.81;6033192;28;20056;-66
2023/07/10 00:14:22;;;;;;;5.35;3.30;;;;;;;20.46;100.00;101046.53;6026798;28;20034;-66
2023/07/10 00:17:17;;;;;;;8.70;3.92;;;;;;;20.70;100.00;101062.16;6037783;28;20498;-67
2023/07/10 00:20:15;;;;;;;8.02;3.95;;;;;;;20.61;100.00;101049.06;6028524;28;20061;-66
2023/07/10 00:23:12;;;;;;;7.20;3.25;;;;;;;20.28;100.00;101043.53;6028235;28;20030;-67
2023/07/10 00:26:19;;;;;;;7.25;3.80;;;;;;;20.22;100.00;101052.38;6027794;28;20038;-67
2023/07/10 00:29:27;;;;;;;7.55;3.83;;;;;;;19.96;100.00;101057.66;6027479;28;20033;-66
2023/07/10 00:32:22;;;;;;;6.85;4.15;;;;;;;19.73;100.00;101036.38;6028071;28;20058;-68
2023/07/10 00:35:24;;;;;;;7.40;4.17;;;;;;;19.57;100.00;101029.47;6027611;28;20030;-66
2023/07/10 00:38:29;;;;;;;8.73;4.57;;;;;;;19.57;100.00;101042.06;6027131;28;20177;-68
2023/07/10 00:41:26;;;;;;;8.10;4.57;;;;;;;19.50;100.00;101031.28;6034179;28;20367;-67
2023/07/10 00:44:29;;;;;;;9.82;4.53;;;;;;;19.42;100.00;101034.13;6026253;28;20129;-69
2023/07/10 00:47:27;;;;;;;8.73;4.80;;;;;;;19.33;100.00;101013.72;6026686;28;20081;-68
2023/07/10 00:50:30;;;;;;;8.38;4.32;;;;;;;19.40;100.00;101016.50;6028014;28;20029;-68
2023/07/10 00:53:30;;;;;;;7.03;4.03;;;;;;;19.40;100.00;101009.28;6042304;28;20108;-68
2023/07/10 00:56:28;;;;;;;6.72;4.55;;;;;;;19.41;100.00;101016.31;6026780;28;20033;-68
2023/07/10 00:59:28;;;;;;;7.95;4.47;;;;;;;19.40;100.00;101013.81;6026500;28;20041;-68
2023/07/10 01:02:24;;;;;;;11.65;5.20;;;;;;;19.48;100.00;101021.75;6027795;28;20030;-67
2023/07/10 01:05:19;;;;;;;10.35;4.13;;;;;;;19.49;100.00;101000.00;6027027;28;20026;-67
2023/07/10 01:08:15;;;;;;;8.55;4.93;;;;;;;19.46;100.00;100988.81;6027363;28;20121;-67
2023/07/10 01:11:10;;;;;;;8.93;4.70;;;;;;;19.57;100.00;101002.56;6027575;28;20057;-67
2023/07/10 01:14:07;;;;;;;8.07;4.07;;;;;;;19.54;100.00;100983.31;6030280;28;20273;-67
2023/07/10 01:17:03;;;;;;;12.40;4.85;;;;;;;19.65;100.00;100996.16;6027355;28;20062;-67
2023/07/10 01:20:02;;;;;;;7.72;4.38;;;;;;;19.69;100.00;100986.69;6027332;28;20037;-67
2023/07/10 01:22:59;;;;;;;9.40;4.13;;;;;;;19.88;100.00;101018.28;6026991;28;20041;-67
2023/07/10 01:25:57;;;;;;;7.53;4.40;;;;;;;19.77;100.00;101016.13;6026555;28;20038;-67
2023/07/10 01:28:53;;;;;;;8.63;4.30;;;;;;;19.81;100.00;101028.16;6025762;28;20089;-67
2023/07/10 01:31:53;;;;;;;8.35;4.78;;;;;;;19.71;100.00;101000.78;6025583;28;20041;-68
2023/07/10 01:34:52;;;;;;;6.55;3.70;;;;;;;19.75;100.00;101010.13;6024469;28;20034;-67
2023/07/10 01:37:47;;;;;;;6.43;3.92;;;;;;;20.12;100.00;101006.16;6025811;28;20449;-68
2023/07/10 01:40:50;;;;;;;8.95;4.40;;;;;;;20.04;100.00;101009.00;6026998;28;20038;-67
2023/07/10 01:43:45;;;;;;;10.27;4.50;;;;;;;20.00;100.00;100997.81;6030866;28;20026;-68
2023/07/10 01:46:41;;;;;;;8.57;3.60;;;;;;;20.02;100.00;101009.22;6025784;28;20058;-68
2023/07/10 01:49:41;;;;;;;9.48;4.00;;;;;;;20.19;100.00;101010.53;6026454;28;20053;-68
2023/07/10 01:52:37;;;;;;;7.05;3.75;;;;;;;20.36;100.00;101015.59;6027728;28;20057;-68
2023/07/10 01:55:43;;;;;;;7.25;3.65;;;;;;;20.20;100.00;101016.75;6025893;28;20108;-68
2023/07/10 01:58:38;;;;;;;8.88;3.45;;;;;;;20.30;100.00;101027.19;6025565;28;20030;-69
2023/07/10 02:01:34;;;;;;;7.57;4.07;;;;;;;20.05;100.00;101038.47;6026621;28;20045;-68
2023/07/10 02:04:29;;;;;;;9.35;4.10;;;;;;;19.90;100.00;101043.13;6025514;28;20358;-68
2023/07/10 02:07:24;;;;;;;6.53;3.83;;;;;;;19.47;100.00;101057.75;6026057;28;20474;-68
2023/07/10 02:10:19;;;;;;;7.30;4.10;;;;;;;19.41;100.00;101063.88;6025817;28;20609;-67
2023/07/10 02:13:15;;;;;;;9.00;4.37;;;;;;;19.33;100.00;101070.22;6025997;28;20037;-69
2023/07/10 02:16:12;;;;;;;9.13;4.30;;;;;;;19.55;100.00;101069.19;6026102;28;20026;-68
2023/07/10 02:19:07;;;;;;;9.68;4.05;;;;;;;19.49;100.00;101061.91;6026900;28;20041;-67
2023/07/10 02:22:03;;;;;;;13.45;3.97;;;;;;;19.84;100.00;101057.38;6026229;28;20026;-67
2023/07/10 02:24:58;;;;;;;11.00;4.35;;;;;;;19.98;100.00;101045.66;6025181;28;20018;-68
2023/07/10 02:27:53;;;;;;;8.97;4.23;;;;;;;19.76;100.00;101029.81;6026191;28;20037;-67
2023/07/10 02:30:49;;;;;;;6.23;4.37;;;;;;;19.73;100.00;101014.03;6025962;28;20030;-67
2023/07/10 02:33:44;;;;;;;8.23;4.87;;;;;;;19.90;100.00;101032.34;6025252;28;20029;-68
2023/07/10 02:36:39;;;;;;;7.43;4.50;;;;;;;19.63;100.00;101024.31;6026005;28;20023;-68
2023/07/10 02:39:34;;;;;;;13.10;4.60;;;;;;;19.53;100.00;101032.75;6025720;28;20034;-68
2023/07/10 02:42:30;;;;;;;9.83;4.70;;;;;;;19.41;100.00;101037.00;6025768;28;20495;-68
2023/07/10 02:45:26;;;;;;;10.98;4.85;;;;;;;19.40;100.00;101057.72;6025643;28;20034;-68
2023/07/10 02:48:21;;;;;;;10.20;5.07;;;;;;;19.26;100.00;101049.69;6031824;28;20051;-68
2023/07/10 02:51:16;;;;;;;10.13;5.17;;;;;;;19.39;100.00;101071.34;6032421;28;20379;-67
2023/07/10 02:54:12;;;;;;;8.50;4.75;;;;;;;19.17;100.00;101066.97;6033865;28;20034;-68
2023/07/10 02:57:08;;;;;;;9.18;5.22;;;;;;;19.32;100.00;101068.53;6030247;28;20053;-67
2023/07/10 03:00:04;;;;;;;8.33;4.37;;;;;;;19.33;100.00;101050.56;6030597;28;20029;-68
2023/07/10 03:03:00;;;;;;;13.52;4.80;;;;;;;19.36;100.00;101050.16;6028742;28;20093;-68
2023/07/10 03:05:57;;;;;;;10.65;4.88;;;;;;;19.29;100.00;101052.81;6029950;28;20034;-68
2023/07/10 03:08:52;;;;;;;13.13;4.97;;;;;;;19.33;100.00;101053.25;6030084;28;20496;-67
2023/07/10 03:11:47;;;;;;;8.30;4.87;;;;;;;19.46;100.00;101045.31;6030283;28;20026;-68
2023/07/10 03:14:43;;;;;;;10.50;4.87;;;;;;;19.94;100.00;101055.16;6029786;28;20033;-68
2023/07/10 03:17:38;;;;;;;8.77;4.87;;;;;;;20.00;100.00;101048.16;6029762;28;20027;-67
2023/07/10 03:20:33;;;;;;;6.47;4.15;;;;;;;19.86;100.00;101036.50;6029865;28;20281;-68
2023/07/10 03:23:29;;;;;;;8.17;4.90;;;;;;;20.06;100.00;101040.09;6029027;28;20379;-67
2023/07/10 03:26:24;;;;;;;7.88;4.75;;;;;;;19.98;100.00;101045.66;6029891;28;20030;-68
2023/07/10 03:29:19;;;;;;;9.43;4.50;;;;;;;19.80;100.00;101037.28;6029905;28;20039;-68
2023/07/10 03:32:15;;;;;;;9.87;4.90;;;;;;;19.78;100.00;101043.88;6029086;28;20040;-69
2023/07/10 03:35:10;;;;;;;9.68;4.72;;;;;;;19.66;100.00;101048.13;6028722;28;20401;-68
2023/07/10 03:38:06;;;;;;;8.17;5.20;;;;;;;19.81;100.00;101055.06;6029462;28;20037;-67
2023/07/10 03:41:01;;;;;;;12.57;4.95;;;;;;;19.79;100.00;101046.38;6035473;28;20030;-68
2023/07/10 03:43:56;;;;;;;10.48;5.13;;;;;;;19.59;100.00;101040.03;6028347;28;20030;-68
2023/07/10 03:46:52;;;;;;;10.77;5.10;;;;;;;19.66;100.00;101048.97;6034852;28;20381;-68
2023/07/10 03:49:47;;;;;;;13.90;4.87;;;;;;;19.52;100.00;101039.16;6033033;28;20461;-68
2023/07/10 03:52:42;;;;;;;16.47;4.93;;;;;;;19.44;100.00;101063.50;6028798;28;20288;-68
2023/07/10 03:55:49;;;;;;;8.80;4.53;;;;;;;19.23;100.00;101033.94;6028692;28;20518;-68
2023/07/10 03:58:45;;;;;;;8.73;5.10;;;;;;;19.31;100.00;101049.91;6028376;28;20030;-68
2023/07/10 04:01:42;;;;;;;12.35;4.82;;;;;;;19.29;100.00;101050.13;6028922;28;20114;-68
2023/07/10 04:04:37;;;;;;;9.38;5.35;;;;;;;19.26;100.00;101063.13;6028310;28;20462;-69
2023/07/10 04:07:33;;;;;;;10.63;5.60;;;;;;;19.15;100.00;101055.56;6033031;28;20034;-69
2023/07/10 04:10:28;;;;;;;8.20;5.10;;;;;;;19.30;100.00;101061.69;6034268;28;20031;-68
2023/07/10 04:13:23;;;;;;;11.33;6.20;;;;;;;19.43;100.00;101056.47;6027924;28;20496;-69
2023/07/10 04:16:20;;;;;;;16.08;5.32;;;;;;;19.51;100.00;101042.88;6029073;28;20113;-68
2023/07/10 04:19:15;;;;;;;9.18;5.18;;;;;;;19.45;100.00;101022.97;6029872;28;20126;-68
2023/07/10 04:22:11;;;;;;;11.60;5.50;;;;;;;19.49;100.00;101018.84;6028812;28;20038;-69
2023/07/10 04:25:07;;;;;;;10.43;5.87;;;;;;;19.46;100.00;101023.78;6027923;28;20289;-69
2023/07/10 04:28:02;;;;;;;12.75;5.85;;;;;;;19.40;100.00;101038.88;6028440;28;20382;-68
2023/07/10 04:30:57;;;;;;;9.05;5.35;;;;;;;19.44;100.00;101036.59;6028368;28;20029;-68
2023/07/10 04:33:53;;;;;;;17.50;5.47;;;;;;;19.31;100.00;101033.78;6027737;28;20064;-68
2023/07/10 04:36:48;;;;;;;15.32;5.60;;;;;;;19.27;100.00;101029.84;6028146;28;20065;-68
2023/07/10 04:39:44;;;;;;;13.45;6.00;;;;;;;19.26;100.00;101041.59;6028155;28;20034;-68
2023/07/10 04:42:39;;;;;;;11.70;6.47;;;;;;;19.13;100.00;101041.50;6028184;28;20038;-68
2023/07/10 04:45:37;;;;;;;13.13;6.17;;;;;;;19.22;100.00;101043.00;6030823;28;20033;-68
2023/07/10 04:48:33;;;;;;;10.30;6.32;;;;;;;19.17;100.00;101056.22;6028223;28;20109;-67
2023/07/10 04:51:28;;;;;;;17.42;7.10;;;;;;;19.11;100.00;101062.34;6032442;28;20067;-67
2023/07/10 04:54:23;;;;;;;10.70;5.70;;;;;;;19.02;100.00;101032.91;6033054;28;20030;-67
2023/07/10 04:57:19;;;;;;;11.93;5.60;;;;;;;19.18;100.00;101053.34;6027810;28;20034;-67
2023/07/10 05:00:14;;;;;;;13.07;6.30;;;;;;;19.24;100.00;101046.34;6033494;28;20351;-67
2023/07/10 05:03:10;;;;;;;11.27;5.82;;;;;;;19.44;100.00;101033.91;6038403;28;20022;-68
2023/07/10 05:06:05;;;;;;;13.40;5.65;;;;;;;19.99;100.00;101052.72;6027205;28;20034;-68
2023/07/10 05:09:00;;;;;;;16.17;6.30;;;;;;;20.19;100.00;101044.72;6026864;28;20169;-67
2023/07/10 05:11:56;;;;;;;17.30;6.10;;;;;;;20.45;100.00;101052.94;6026897;28;20057;-67
2023/07/10 05:14:51;;;;;;;12.35;5.75;;;;;;;20.72;100.00;101048.47;6027035;28;20760;-66
2023/07/10 05:17:47;;;;;;;12.60;5.70;;;;;;;20.61;100.00;101067.91;6025676;28;20045;-68
2023/07/10 05:20:47;;;;;;;14.50;6.53;;;;;;;20.25;100.00;101051.22;6023689;28;20194;-68
2023/07/10 05:23:42;;;;;;;13.80;7.28;;;;;;;20.20;100.00;101049.91;6025298;28;20281;-67
2023/07/10 05:26:37;;;;;;;15.80;8.00;;;;;;;20.15;100.00;101073.09;6030712;28;20085;-67
2023/07/10 05:29:33;;;;;;;16.10;8.20;;;;;;;20.12;100.00;101078.88;6027073;28;20126;-66
2023/07/10 05:32:28;;;;;;;18.17;10.40;;;;;;;19.99;100.00;101060.78;6027589;28;20382;-67
2023/07/10 05:35:23;;;;;;;21.77;12.30;;;;;;;20.03;100.00;101075.50;6031652;28;20326;-67
2023/07/10 05:38:20;;;;;;;18.50;11.80;;;;;;;20.01;100.00;101064.09;6038613;28;20378;-67
2023/07/10 05:41:16;;;;;;;22.90;11.73;;;;;;;20.09;100.00;101065.78;6026206;28;20034;-67
2023/07/10 05:44:12;;;;;;;23.70;10.40;;;;;;;20.16;100.00;101064.78;6025949;28;20081;-67
2023/07/10 05:47:07;;;;;;;16.37;10.30;;;;;;;20.25;100.00;101088.94;6037609;28;20049;-67
2023/07/10 05:50:02;;;;;;;13.83;9.33;;;;;;;20.18;100.00;101086.16;6031324;28;20381;-67
2023/07/10 05:52:57;;;;;;;17.95;9.88;;;;;;;20.17;100.00;101085.31;6035220;28;20030;-67
2023/07/10 05:55:55;;;;;;;15.87;9.13;;;;;;;20.22;100.00;101100.88;6036376;28;20038;-67
2023/07/10 05:58:50;;;;;;;18.88;10.68;;;;;;;20.13;100.00;101102.09;6028068;28;20449;-67
2023/07/10 06:01:46;;;;;;;16.63;9.87;;;;;;;20.17;100.00;101101.47;6033158;28;20040;-67
2023/07/10 06:04:41;;;;;;;18.90;9.73;;;;;;;20.20;100.00;101108.31;6028656;28;20034;-67
2023/07/10 06:07:36;;;;;;;19.23;10.27;;;;;;;20.25;100.00;101121.25;6027854;28;20185;-68
2023/07/10 06:10:35;;;;;;;20.98;10.95;;;;;;;20.23;100.00;101145.66;6024505;28;20030;-67
2023/07/10 06:13:30;;;;;;;19.88;11.50;;;;;;;20.09;100.00;101128.56;6025607;28;20052;-67
2023/07/10 06:16:27;;;;;;;24.07;12.33;;;;;;;20.07;100.00;101136.03;6025831;28;20053;-66
2023/07/10 06:19:22;;;;;;;20.13;12.07;;;;;;;19.98;100.00;101137.19;6032982;28;20030;-67
2023/07/10 06:22:17;;;;;;;20.17;11.30;;;;;;;19.91;100.00;101133.63;6029085;28;20034;-66
2023/07/10 06:25:13;;;;;;;19.20;11.57;;;;;;;19.96;100.00;101141.94;6030155;28;20508;-66
2023/07/10 06:28:08;;;;;;;22.70;11.93;;;;;;;19.89;100.00;101132.16;6045468;28;20041;-67
2023/07/10 06:31:06;;;;;;;26.17;14.00;;;;;;;19.84;100.00;101151.59;6034768;28;20285;-66
2023/07/10 06:34:01;;;;;;;30.05;14.50;;;;;;;19.82;100.00;101156.34;6027949;28;20022;-67
2023/07/10 06:36:56;;;;;;;28.80;13.80;;;;;;;19.77;100.00;101161.47;6039418;28;20104;-67
2023/07/10 06:40:09;;;;;;;26.43;14.47;;;;;;;19.70;100.00;101149.84;6026675;28;20027;-67
2023/07/10 06:43:05;;;;;;;26.38;13.88;;;;;;;19.73;100.00;101149.41;6032543;28;20029;-67
2023/07/10 06:46:00;;;;;;;26.00;13.68;;;;;;;19.74;100.00;101166.41;6039379;28;20030;-67
2023/07/10 06:48:56;;;;;;;25.13;13.37;;;;;;;19.59;100.00;101159.25;6029586;28;20041;-67
2023/07/10 06:51:51;;;;;;;23.50;14.27;;;;;;;19.59;100.00;101177.28;6032664;28;20477;-67
2023/07/10 06:54:46;;;;;;;27.27;14.83;;;;;;;19.42;100.00;101162.41;6037742;28;20044;-67
2023/07/10 06:57:42;;;;;;;24.93;12.67;;;;;;;19.44;100.00;101174.63;6026865;28;20062;-67
2023/07/10 07:00:38;;;;;;;23.00;12.05;;;;;;;19.34;100.00;101166.03;6024728;28;20281;-67
2023/07/10 07:03:33;;;;;;;24.02;12.70;;;;;;;19.38;100.00;101177.25;6028372;28;20030;-67
2023/07/10 07:06:29;;;;;;;22.13;12.17;;;;;;;19.45;100.00;101188.94;6033166;28;20030;-67
2023/07/10 07:09:24;;;;;;;23.47;11.13;;;;;;;19.48;100.00;101191.25;6027830;28;20031;-68
2023/07/10 07:12:19;;;;;;;22.80;11.87;;;;;;;19.34;100.00;101170.56;6032935;28;20041;-67
2023/07/10 07:15:15;;;;;;;28.83;12.50;;;;;;;19.37;100.00;101187.16;6028203;28;20370;-67
2023/07/10 07:18:11;;;;;;;24.67;11.77;;;;;;;19.31;100.00;101197.84;6025051;28;20033;-67
2023/07/10 07:21:07;;;;;;;27.05;13.15;;;;;;;19.32;100.00;101203.03;6024626;28;20265;-67
2023/07/10 07:24:03;;;;;;;26.80;13.20;;;;;;;19.26;100.00;101181.47;6028022;28;20429;-67
2023/07/10 07:26:59;;;;;;;25.48;13.35;;;;;;;19.15;100.00;101176.56;6025185;28;20038;-67
2023/07/10 07:29:54;;;;;;;25.75;12.43;;;;;;;19.22;100.00;101189.06;6024679;28;20026;-67
2023/07/10 07:32:49;;;;;;;26.07;12.10;;;;;;;19.17;100.00;101185.28;6020991;28;20041;-67
2023/07/10 07:35:45;;;;;;;24.37;12.87;;;;;;;19.14;100.00;101185.66;6026395;28;20061;-67
2023/07/10 07:38:41;;;;;;;27.48;13.68;;;;;;;19.14;100.00;101182.97;6031721;28;20057;-67
2023/07/10 07:41:36;;;;;;;25.58;12.68;;;;;;;19.27;100.00;101183.13;6031856;28;20566;-67
2023/07/10 07:44:31;;;;;;;24.07;12.83;;;;;;;19.41;100.00;101193.00;6033884;28;20794;-67
2023/07/10 07:47:27;;;;;;;24.70;11.17;;;;;;;19.45;100.00;101180.84;6021612;28;20071;-68
2023/07/10 07:50:22;;;;;;;23.67;11.05;;;;;;;19.52;100.00;101192.50;6028795;28;20041;-67
2023/07/10 07:53:18;;;;;;;21.97;10.83;;;;;;;19.69;100.00;101199.28;6028179;28;20037;-67
2023/07/10 07:56:13;;;;;;;19.27;10.33;;;;;;;19.81;100.00;101184.28;6028658;28;20030;-67
2023/07/10 07:59:08;;;;;;;20.37;10.97;;;;;;;20.09;100.00;101198.59;6031196;28;20026;-67
2023/07/10 08:02:04;;;;;;;22.67;11.13;;;;;;;20.20;100.00;101189.13;6045314;28;20044;-67
2023/07/10 08:05:00;;;;;;;18.77;10.30;;;;;;;20.27;100.00;101202.69;6027773;28;20037;-67
2023/07/10 08:07:56;;;;;;;18.60;9.85;;;;;;;20.10;100.00;101202.97;6033179;28;20030;-67
2023/07/10 08:10:51;;;;;;;18.10;10.10;;;;;;;20.04;100.00;101214.50;6042923;28;20041;-67
2023/07/10 08:13:47;;;;;;;20.17;9.70;;;;;;;19.98;100.00;101209.06;6028265;28;20034;-67
2023/07/10 08:16:42;;;;;;;22.08;10.57;;;;;;;20.07;100.00;101224.88;6028519;28;20265;-68
2023/07/10 08:19:37;;;;;;;17.27;10.17;;;;;;;20.09;100.00;101224.69;6036388;28;20041;-67
2023/07/10 08:22:33;;;;;;;21.23;11.03;;;;;;;20.04;100.00;101222.59;6028548;28;20285;-67
2023/07/10 08:25:28;;;;;;;19.77;10.63;;;;;;;20.20;100.00;101227.69;6027041;28;20069;-67
2023/07/10 08:28:23;;;;;;;17.42;9.70;;;;;;;20.46;100.00;101220.84;6028119;28;20373;-67
2023/07/10 08:31:19;;;;;;;20.27;9.20;;;;;;;20.29;100.00;101216.78;6027896;28;20038;-67
2023/07/10 08:34:14;;;;;;;17.53;8.83;;;;;;;20.25;100.00;101218.22;6027396;28;20379;-67
2023/07/10 08:37:09;;;;;;;22.20;10.33;;;;;;;20.31;100.00;101236.28;6038492;28;20030;-67
2023/07/10 08:40:06;;;;;;;18.23;9.90;;;;;;;20.29;100.00;101235.66;6027368;28;20042;-67
2023/07/10 08:43:15;;;;;;;18.48;9.38;;;;;;;20.05;100.00;101223.44;6027151;28;20018;-67
2023/07/10 08:46:22;;;;;;;19.52;11.00;;;;;;;20.10;100.00;101242.53;6025303;28;20030;-68
2023/07/10 08:49:28;;;;;;;23.42;10.93;;;;;;;19.97;100.00;101224.41;6030684;28;20070;-67
2023/07/10 08:52:35;;;;;;;;;;;;;;;20.04;100.00;101243.28;6026043;28;20038;-66
2023/07/10 08:55:49;;;;;;;20.92;12.20;;;;;;;19.98;100.00;101242.22;6046617;28;19967;-68
2023/07/10 08:58:44;;;;;;;23.98;13.32;;;;;;;19.80;100.00;101224.84;6010773;28;20093;-67
2023/07/10 09:01:43;;;;;;;25.80;13.23;;;;;;;19.77;100.00;101230.63;6040715;28;20741;-67
2023/07/10 09:04:39;;;;;;;19.55;11.07;;;;;;;19.84;100.00;101242.31;6030774;28;20053;-66
2023/07/10 09:07:38;;;;;;;21.90;11.40;;;;;;;20.00;100.00;101236.66;6031886;28;20049;-66
2023/07/10 09:10:38;;;;;;;20.17;11.20;;;;;;;20.02;100.00;101240.81;6039413;28;20033;-67
2023/07/10 09:14:02;;;;;;;16.80;9.98;;;;;;;20.13;100.00;101242.97;6025880;28;20038;-66
2023/07/10 09:16:58;;;;;;;16.90;9.70;;;;;;;20.32;100.00;101224.47;6022403;28;20080;-67
2023/07/10 09:19:57;;;;;;;16.75;9.00;;;;;;;20.89;100.00;101253.84;6030270;28;20029;-67
2023/07/10 09:22:59;;;;;;;13.82;8.23;;;;;;;20.95;100.00;101243.09;6033395;28;20490;-67
2023/07/10 09:25:57;;;;;;;14.05;8.45;;;;;;;20.77;100.00;101240.09;6030518;28;20362;-67
2023/07/10 09:29:11;;;;;;;15.90;9.25;;;;;;;20.73;100.00;101260.41;6037281;28;20072;-68
2023/07/10 09:32:10;;;;;;;14.90;8.98;;;;;;;20.48;100.00;101268.13;6026884;28;20035;-67
2023/07/10 09:35:06;;;;;;;19.50;9.20;;;;;;;20.29;100.00;101273.34;6035381;28;20066;-67
2023/07/10 09:38:01;;;;;;;15.88;9.18;;;;;;;20.45;100.00;101264.97;6032177;28;20076;-67
2023/07/10 09:40:57;;;;;;;13.33;7.73;;;;;;;20.58;100.00;101265.06;6027088;28;20058;-68
2023/07/10 09:44:21;;;;;;;13.07;8.00;;;;;;;20.94;100.00;101273.78;6033884;28;20328;-66
2023/07/10 09:47:17;;;;;;;13.02;7.00;;;;;;;20.95;100.00;101258.44;6028214;28;20053;-66
2023/07/10 09:50:15;;;;;;;13.25;6.80;;;;;;;20.99;99.95;101260.53;6029741;28;20038;-67
2023/07/10 09:53:22;;;;;;;10.77;6.68;;;;;;;21.07;99.21;101260.38;6030746;28;20037;-67
2023/07/10 09:56:35;;;;;;;10.23;5.78;;;;;;;21.12;98.45;101276.78;6031187;28;20048;-67
2023/07/10 09:59:31;;;;;;;10.27;5.38;;;;;;;21.40;97.97;101284.81;6028206;28;20049;-67
2023/07/10 10:02:34;;;;;;;12.27;6.20;;;;;;;21.57;96.33;101269.06;6030545;28;20033;-67
2023/07/10 10:05:29;;;;;;;9.68;4.88;;;;;;;22.06;93.98;101276.88;6025193;28;20077;-67
2023/07/10 10:08:34;;;;;;;9.48;4.82;;;;;;;22.20;91.48;101286.63;6035900;28;20490;-67
2023/07/10 10:11:38;;;;;;;13.05;5.78;;;;;;;22.33;91.23;101268.56;6024765;28;20034;-66
2023/07/10 10:14:42;;;;;;;10.90;4.20;;;;;;;22.46;89.42;101283.91;6024142;28;20030;-67
2023/07/10 10:17:41;;;;;;;11.05;4.50;;;;;;;22.46;89.77;101298.28;6028473;28;20040;-66
2023/07/10 10:20:36;;;;;;;11.38;5.47;;;;;;;22.10;89.79;101276.22;6036272;28;20036;-67
2023/07/10 10:23:34;;;;;;;9.80;5.33;;;;;;;22.25;89.94;101300.34;6027753;28;20030;-67
2023/07/10 10:27:00;;;;;;;11.90;5.55;;;;;;;22.41;90.00;101303.47;6043445;28;20279;-67
2023/07/10 10:29:58;;;;;;;14.02;5.72;;;;;;;23.10;87.89;101294.84;6039778;28;20087;-66
2023/07/10 10:33:12;;;;;;;12.75;6.57;;;;;;;23.42;84.24;101301.19;6030513;28;20044;-67
2023/07/10 10:36:34;;;;;;;13.73;6.22;;;;;;;23.57;83.69;101290.88;6037962;28;20026;-67
2023/07/10 10:39:37;;;;;;;9.88;5.68;;;;;;;23.99;79.18;101289.38;6034471;28;20469;-67
2023/07/10 10:42:43;;;;;;;9.77;4.88;;;;;;;24.02;78.57;101286.22;6030714;28;20089;-67
2023/07/10 10:46:14;;;;;;;8.30;4.88;;;;;;;23.78;79.36;101304.09;6043999;28;20385;-67
2023/07/10 10:49:46;;;;;;;9.20;5.20;;;;;;;23.09;82.08;101310.25;6022834;28;20054;-66
2023/07/10 10:52:56;;;;;;;10.25;4.97;;;;;;;23.07;81.60;101306.09;6020849;28;20130;-67
2023/07/10 10:56:05;;;;;;;11.35;4.55;;;;;;;23.32;81.86;101276.44;6024149;28;20030;-67
2023/07/10 10:59:13;;;;;;;7.07;4.10;;;;;;;23.33;80.56;101300.56;6045895;28;20034;-67
2023/07/10 11:02:31;;;;;;;5.78;3.42;;;;;;;23.35;80.26;101303.88;6024670;28;20027;-66
2023/07/10 11:05:36;;;;;;;7.78;3.80;;;;;;;23.64;79.29;101297.91;6025278;28;20034;-67
2023/07/10 11:08:40;;;;;;;5.13;3.42;;;;;;;23.64;77.94;101295.22;6036089;28;20064;-66
2023/07/10 11:11:37;;;;;;;7.25;2.88;;;;;;;23.83;76.68;101298.03;6029028;28;20030;-66
2023/07/10 11:14:32;;;;;;;4.70;2.72;;;;;;;23.69;74.38;101295.41;6029039;28;20026;-67
2023/07/10 11:17:28;;;;;;;5.68;2.92;;;;;;;23.68;72.37;101272.06;6028985;28;20401;-67
2023/07/10 11:20:25;;;;;;;5.97;3.08;;;;;;;24.62;69.73;101282.78;6038380;28;20058;-67
2023/07/10 11:23:33;;;;;;;4.18;2.47;;;;;;;24.68;70.31;101279.19;6032432;28;20547;-67
2023/07/10 11:26:29;;;;;;;5.47;2.50;;;;;;;25.06;67.13;101280.91;6029190;28;20050;-68
2023/07/10 11:29:36;;;;;;;7.07;3.13;;;;;;;25.14;64.85;101294.97;6034869;28;20029;-66
2023/07/10 11:32:51;;;;;;;7.72;2.85;;;;;;;24.93;66.24;101291.88;6028090;28;20109;-67
2023/07/10 11:36:12;;;;;;;8.68;2.53;;;;;;;24.90;66.90;101298.59;6028823;28;20037;-67
2023/07/10 11:39:11;;;;;;;7.75;3.22;;;;;;;24.43;68.51;101308.25;6021872;28;20026;-67
2023/07/10 11:42:15;;;;;;;7.85;2.75;;;;;;;24.68;69.84;101292.75;6029210;28;20026;-67
2023/07/10 11:45:12;;;;;;;4.75;2.40;;;;;;;25.51;65.65;101301.22;6028146;28;20046;-67
2023/07/10 11:48:53;;;;;;;5.75;2.55;;;;;;;26.04;60.71;101295.84;6028846;28;20038;-67
2023/07/10 11:52:13;;;;;;;6.00;2.63;;;;;;;26.08;60.68;101296.22;6028002;28;20054;-67
2023/07/10 11:55:12;;;;;;;4.95;2.15;;;;;;;26.33;58.83;101299.59;6015831;28;20034;-68
2023/07/10 11:58:22;;;;;;;4.90;2.17;;;;;;;26.48;57.27;101295.34;6031063;28;20042;-67
2023/07/10 12:01:20;;;;;;;5.05;2.20;;;;;;;26.27;57.69;101295.09;6031043;28;20034;-67
2023/07/10 12:04:15;;;;;;;5.25;2.72;;;;;;;26.05;57.88;101297.50;6031960;28;20038;-66
2023/07/10 12:07:11;;;;;;;5.78;2.65;;;;;;;25.89;59.70;101299.00;6035202;28;20127;-67
2023/07/10 12:10:10;;;;;;;5.95;3.05;;;;;;;25.59;59.23;101302.78;6031958;28;20034;-67
2023/07/10 12:13:20;;;;;;;5.82;2.63;;;;;;;24.99;60.82;101304.56;6026989;28;20470;-67
2023/07/10 12:16:16;;;;;;;4.47;2.10;;;;;;;24.94;62.14;101296.28;6028205;28;20030;-66
2023/07/10 12:19:26;;;;;;;3.80;2.30;;;;;;;25.75;60.97;101307.59;6026870;28;20045;-67
2023/07/10 12:22:24;;;;;;;6.45;2.75;;;;;;;26.07;57.81;101300.81;6026850;28;20088;-67
2023/07/10 12:25:20;;;;;;;4.28;2.10;;;;;;;25.91;58.41;101296.88;6037426;28;20022;-67
2023/07/10 12:28:17;;;;;;;4.68;2.35;;;;;;;25.97;57.49;101312.28;6028460;28;20414;-67
2023/07/10 12:31:14;;;;;;;9.68;2.63;;;;;;;25.61;57.55;101311.53;6027940;28;20037;-67
2023/07/10 12:34:23;;;;;;;4.55;2.08;;;;;;;25.33;57.90;101331.09;6026289;28;20030;-67
2023/07/10 12:37:19;;;;;;;3.10;2.10;;;;;;;25.27;58.86;101329.31;6027772;28;20030;-67
2023/07/10 12:40:15;;;;;;;6.95;2.50;;;;;;;25.08;57.84;101317.63;6043249;28;20483;-68
2023/07/10 12:43:21;;;;;;;6.70;1.90;;;;;;;25.14;57.68;101332.19;6029693;28;20018;-67
2023/07/10 12:46:20;;;;;;;4.65;2.10;;;;;;;25.08;59.76;101323.06;6027987;28;20138;-68
2023/07/10 12:49:16;;;;;;;4.35;1.98;;;;;;;25.39;59.51;101324.75;6030116;28;20466;-67
2023/07/10 12:52:12;;;;;;;3.35;1.80;;;;;;;25.79;57.21;101342.22;6027282;28;20073;-68
2023/07/10 12:55:14;;;;;;;3.88;1.77;;;;;;;25.40;56.49;101321.00;6026411;28;20262;-67
2023/07/10 12:58:13;;;;;;;4.10;1.90;;;;;;;25.50;56.63;101342.19;6029945;28;20057;-67
2023/07/10 13:01:27;;;;;;;6.60;1.92;;;;;;;26.14;55.40;101327.94;6029925;28;20022;-67
2023/07/10 13:04:24;;;;;;;4.68;2.30;;;;;;;26.10;54.31;101345.75;6028382;28;20627;-67
2023/07/10 13:07:22;;;;;;;2.85;1.70;;;;;;;25.97;54.85;101344.06;6029677;28;20429;-67
2023/07/10 13:10:22;;;;;;;3.05;1.75;;;;;;;26.28;53.60;101334.84;6026252;28;20026;-67
2023/07/10 13:13:19;;;;;;;8.75;2.28;;;;;;;27.07;52.43;101335.09;6027809;28;20374;-68
2023/07/10 13:16:17;;;;;;;5.05;2.05;;;;;;;27.65;51.80;101334.97;6027693;28;20030;-68
2023/07/10 13:19:13;;;;;;;5.38;2.10;;;;;;;27.83;51.15;101344.03;6027939;28;20064;-68
2023/07/10 13:22:10;;;;;;;4.13;1.87;;;;;;;27.43;51.44;101316.78;6033577;28;20034;-67
2023/07/10 13:25:06;;;;;;;6.65;2.42;;;;;;;27.21;51.94;101330.22;6029650;28;20034;-67
2023/07/10 13:28:23;;;;;;;6.32;2.30;;;;;;;25.81;53.95;101350.97;6030597;28;20037;-67
2023/07/10 13:31:29;;;;;;;5.70;2.10;;;;;;;26.07;54.30;101343.47;6017682;28;20043;-67
2023/07/10 13:34:24;;;;;;;4.38;1.90;;;;;;;26.54;54.45;101328.94;6033743;28;20029;-67
2023/07/10 13:37:21;;;;;;;5.07;2.23;;;;;;;27.06;53.12;101343.50;6027154;28;20026;-68
2023/07/10 13:40:21;;;;;;;7.93;2.33;;;;;;;26.70;52.67;101339.13;6026621;28;20550;-68